Time;durP1;ratioP1;P1;durP2;ratioP2;P2;SDS_P1;SDS_P2;PMS_P1;PMS_P2;Temp;Humidity;BMP_temperature;BMP_pressure;BME280_temperature;BME280_humidity;BME280_pressure;Samples;Min_cycle;Max_cycle;Signal;HPM_P1;HPM_P2
2021/06/20 00:02:07;;;;;;;;;;;;;;;17.36;75.02;97062.41;1626313;88;20169;-87
2021/06/20 00:04:33;;;;;;;;;;;;;;;17.35;74.67;97055.45;1626431;88;20140;-85
2021/06/20 00:06:59;;;;;;;;;;;;;;;17.35;76.18;97052.27;1626419;88;20128;-86
2021/06/20 00:09:25;;;;;;;;;;;;;;;17.36;74.39;97047.76;1626299;88;20169;-86
2021/06/20 00:11:52;;;;;;;;;;;;;;;17.37;74.28;97046.28;1626397;88;20194;-86
2021/06/20 00:14:18;;;;;;;;;;;;;;;17.34;75.19;97033.28;1626531;88;20433;-87
2021/06/20 00:16:45;;;;;;;;;;;;;;;17.33;74.16;97031.14;1626380;88;20448;-87
2021/06/20 00:19:11;;;;;;;;;;;;;;;17.31;74.72;97019.81;1626487;88;20140;-87
2021/06/20 00:21:37;;;;;;;;;;;;;;;17.34;75.36;97026.63;1626613;88;20165;-87
2021/06/20 00:24:04;;;;;;;;;;;;;;;17.36;75.22;97028.63;1628637;87;20141;-87
2021/06/20 00:26:31;;;;;;;;;;;;;;;17.39;75.33;97030.13;1650822;86;20126;-86
2021/06/20 00:28:57;;;;;;;;;;;;;;;17.40;74.25;97036.60;1640862;86;20176;-86
2021/06/20 00:31:23;;;;;;;;;;;;;;;17.40;74.89;97037.12;1626394;88;20132;-88
2021/06/20 00:33:49;;;;;;;;;;;;;;;17.39;74.69;97036.78;1626350;88;20174;-85
2021/06/20 00:36:15;;;;;;;;;;;;;;;17.37;74.94;97044.95;1626185;87;20490;-84
2021/06/20 00:38:41;;;;;;;;;;;;;;;17.36;75.14;97052.61;1626330;87;20436;-87
2021/06/20 00:41:07;;;;;;;;;;;;;;;17.33;74.67;97060.44;1626479;88;20124;-86
2021/06/20 00:43:33;;;;;;;;;;;;;;;17.32;74.74;97068.09;1627857;88;20161;-90
2021/06/20 00:45:59;;;;;;;;;;;;;;;17.30;74.85;97074.08;1651682;87;20138;-87
2021/06/20 00:48:26;;;;;;;;;;;;;;;17.28;75.44;97069.41;1655108;86;20142;-86
2021/06/20 00:50:52;;;;;;;;;;;;;;;17.28;75.84;97075.25;1656873;87;20134;-86
2021/06/20 00:53:20;;;;;;;;;;;;;;;17.27;75.26;97068.26;1656955;86;20162;-85
2021/06/20 00:55:50;;;;;;;;;;;;;;;17.27;74.76;97065.08;1656792;87;20157;-87
2021/06/20 00:58:14;;;;;;;;;;;;;;;17.27;74.91;97066.41;1656806;86;20133;-88
2021/06/20 01:00:40;;;;;;;;;;;;;;;17.26;74.61;97062.59;1656876;86;20199;-87
2021/06/20 01:03:07;;;;;;;;;;;;;;;17.23;74.44;97065.58;1656865;87;20134;-86
2021/06/20 01:05:33;;;;;;;;;;;;;;;17.20;74.57;97067.27;1656795;87;20443;-88
2021/06/20 01:07:59;;;;;;;;;;;;;;;17.18;74.63;97071.41;1656880;86;20138;-86
2021/06/20 01:10:28;;;;;;;;;;;;;;;17.15;74.08;97065.09;1657027;86;20126;-85
2021/06/20 01:12:55;;;;;;;;;;;;;;;17.09;75.22;97064.41;1655201;86;20134;-85
2021/06/20 01:15:21;;;;;;;;;;;;;;;17.00;74.16;97065.73;1656930;87;20138;-85
2021/06/20 01:17:47;;;;;;;;;;;;;;;16.98;74.64;97069.56;1650813;86;20152;-84
2021/06/20 01:20:16;;;;;;;;;;;;;;;16.97;74.62;97061.24;1630238;88;20137;-85
2021/06/20 01:22:44;;;;;;;;;;;;;;;16.95;74.87;97059.23;1630254;88;20140;-88
2021/06/20 01:25:17;;;;;;;;;;;;;;;16.89;74.22;97063.34;1630293;88;20450;-85
2021/06/20 01:27:46;;;;;;;;;;;;;;;16.85;74.39;97058.86;1630185;87;20180;-86
2021/06/20 01:30:18;;;;;;;;;;;;;;;16.79;74.32;97058.70;1644674;87;20136;-87
2021/06/20 01:32:45;;;;;;;;;;;;;;;16.71;74.91;97056.34;1630479;88;20414;-87
2021/06/20 01:35:12;;;;;;;;;;;;;;;16.70;74.45;97054.66;1630035;87;20140;-85
2021/06/20 01:37:39;;;;;;;;;;;;;;;16.67;73.73;97052.35;1636014;87;20142;-87
2021/06/20 01:40:07;;;;;;;;;;;;;;;16.64;74.00;97056.66;1656680;86;20138;-85
2021/06/20 01:42:33;;;;;;;;;;;;;;;16.51;73.55;97061.63;1656928;87;20161;-87
2021/06/20 01:45:00;;;;;;;;;;;;;;;16.39;75.02;97055.75;1656912;86;20138;-86
2021/06/20 01:47:27;;;;;;;;;;;;;;;16.38;74.38;97051.41;1654968;86;20130;-88
2021/06/20 01:49:55;;;;;;;;;;;;;;;16.38;75.28;97053.59;1630133;88;20125;-87
2021/06/20 01:52:24;;;;;;;;;;;;;;;16.44;75.80;97055.27;1630288;88;20474;-87
2021/06/20 01:54:50;;;;;;;;;;;;;;;16.47;75.75;97055.77;1630256;88;20453;-85
2021/06/20 01:57:27;;;;;;;;;;;;;;;16.47;75.58;97051.78;1630339;87;20124;-87
2021/06/20 01:59:55;;;;;;;;;;;;;;;16.54;75.51;97045.32;1630174;88;20128;-87
2021/06/20 02:02:22;;;;;;;;;;;;;;;16.54;75.28;97044.84;1630279;88;20145;-88
2021/06/20 02:04:50;;;;;;;;;;;;;;;16.58;75.43;97049.81;1630264;87;20184;-83
2021/06/20 02:07:16;;;;;;;;;;;;;;;16.63;75.60;97044.34;1630415;88;20158;-86
2021/06/20 02:09:43;;;;;;;;;;;;;;;16.66;75.33;97045.84;1630263;88;20180;-87
2021/06/20 02:12:10;;;;;;;;;;;;;;;16.69;74.93;97052.18;1630326;87;20140;-86
2021/06/20 02:14:37;;;;;;;;;;;;;;;16.70;74.82;97051.19;1630261;88;20433;-87
2021/06/20 02:17:25;;;;;;;;;;;;;;;16.69;74.64;97043.72;1640116;87;20686;-86
2021/06/20 02:19:56;;;;;;;;;;;;;;;16.65;74.25;97042.88;1656722;86;20138;-86
2021/06/20 02:22:22;;;;;;;;;;;;;;;16.62;74.41;97051.17;1656768;86;20129;-86
2021/06/20 02:24:51;;;;;;;;;;;;;;;16.59;74.36;97058.14;1654876;86;20170;-86
2021/06/20 02:27:18;;;;;;;;;;;;;;;16.55;74.47;97057.16;1630318;88;20145;-86
2021/06/20 02:29:46;;;;;;;;;;;;;;;16.55;74.45;97055.83;1630284;88;20129;-86
2021/06/20 02:32:12;;;;;;;;;;;;;;;16.54;74.29;97061.28;1630301;88;20198;-87
2021/06/20 02:34:39;;;;;;;;;;;;;;;16.53;74.23;97068.45;1630205;87;20448;-87
2021/06/20 02:37:08;;;;;;;;;;;;;;;16.52;73.58;97066.78;1630185;88;20132;-87
2021/06/20 02:39:36;;;;;;;;;;;;;;;16.50;74.21;97070.09;1630452;88;20132;-87
2021/06/20 02:42:02;;;;;;;;;;;;;;;16.49;73.86;97073.73;1630262;88;20161;-85
2021/06/20 02:44:29;;;;;;;;;;;;;;;16.49;73.84;97072.92;1635814;88;20132;-86
2021/06/20 02:46:58;;;;;;;;;;;;;;;16.48;73.63;97073.40;1648953;86;20141;-85
2021/06/20 02:49:26;;;;;;;;;;;;;;;16.47;73.90;97073.06;1666983;86;20125;-88
2021/06/20 02:51:52;;;;;;;;;;;;;;;16.45;73.82;97063.11;1667586;86;20129;-86
2021/06/20 02:54:18;;;;;;;;;;;;;;;16.44;73.70;97065.91;1667570;86;20137;-87
2021/06/20 02:56:44;;;;;;;;;;;;;;;16.42;73.70;97064.75;1640792;86;20121;-84
2021/06/20 02:59:10;;;;;;;;;;;;;;;16.45;73.73;97062.25;1667537;86;20130;-86
2021/06/20 03:01:39;;;;;;;;;;;;;;;16.48;73.24;97065.42;1667680;86;20169;-87
2021/06/20 03:04:06;;;;;;;;;;;;;;;16.47;73.29;97065.08;1667797;86;20181;-86
2021/06/20 03:06:32;;;;;;;;;;;;;;;16.48;73.76;97061.94;1667267;85;20149;-86
2021/06/20 03:08:58;;;;;;;;;;;;;;;16.53;73.38;97057.80;1667629;86;20129;-87
2021/06/20 03:11:25;;;;;;;;;;;;;;;16.60;73.79;97059.80;1652574;86;20131;-88
2021/06/20 03:13:51;;;;;;;;;;;;;;;16.64;73.27;97051.34;1640724;86;20241;-86
2021/06/20 03:16:19;;;;;;;;;;;;;;;16.70;74.31;97063.16;1640933;86;20148;-87
2021/06/20 03:18:46;;;;;;;;;;;;;;;16.72;73.98;97067.83;1640660;88;20465;-87
2021/06/20 03:21:12;;;;;;;;;;;;;;;16.73;73.73;97071.31;1640604;88;20445;-87
2021/06/20 03:23:40;;;;;;;;;;;;;;;16.62;73.88;97051.17;1640647;88;20850;-87
2021/06/20 03:26:06;;;;;;;;;;;;;;;16.77;73.76;97068.67;1640732;88;20441;-85
2021/06/20 03:28:32;;;;;;;;;;;;;;;16.65;73.66;97054.84;1640576;88;20160;-86
2021/06/20 03:30:58;;;;;;;;;;;;;;;16.81;74.03;97072.66;1640543;88;20156;-86
2021/06/20 03:33:24;;;;;;;;;;;;;;;16.81;73.40;97077.98;1640762;88;20209;-86
2021/06/20 03:35:50;;;;;;;;;;;;;;;16.82;73.12;97083.64;1640348;86;20128;-84
2021/06/20 03:38:16;;;;;;;;;;;;;;;16.84;73.98;97090.97;1640560;87;20143;-86
2021/06/20 03:40:42;;;;;;;;;;;;;;;16.86;74.16;97084.48;1640557;88;20140;-86
2021/06/20 03:43:09;;;;;;;;;;;;;;;16.89;74.06;97086.49;1640607;88;20136;-87
2021/06/20 03:45:35;;;;;;;;;;;;;;;16.90;73.44;97088.16;1640492;88;20175;-83
2021/06/20 03:48:03;;;;;;;;;;;;;;;16.91;73.24;97091.98;1643949;86;20165;-84
2021/06/20 03:50:29;;;;;;;;;;;;;;;16.91;73.39;97090.65;1666623;86;20138;-87
2021/06/20 03:52:55;;;;;;;;;;;;;;;16.91;73.41;97091.98;1667447;86;20129;-85
2021/06/20 03:55:23;;;;;;;;;;;;;;;16.92;72.94;97086.99;1667320;86;20166;-86
2021/06/20 03:57:49;;;;;;;;;;;;;;;16.93;73.46;97081.19;1667409;86;20145;-86
2021/06/20 04:00:16;;;;;;;;;;;;;;;16.97;72.91;97078.55;1667360;86;20474;-86
2021/06/20 04:02:42;;;;;;;;;;;;;;;17.00;72.50;97083.55;1667300;86;20161;-85
2021/06/20 04:05:11;;;;;;;;;;;;;;;17.03;72.06;97084.53;1651310;86;20173;-84
2021/06/20 04:07:38;;;;;;;;;;;;;;;17.08;72.16;97088.89;1667362;86;20133;-86
2021/06/20 04:10:04;;;;;;;;;;;;;;;17.14;72.19;97082.89;1667572;86;20465;-84
2021/06/20 04:12:31;;;;;;;;;;;;;;;17.26;72.01;97087.90;1667546;86;20181;-85
2021/06/20 04:14:57;;;;;;;;;;;;;;;17.35;71.85;97081.58;1667493;86;20178;-85
2021/06/20 04:17:23;;;;;;;;;;;;;;;17.44;71.62;97076.58;1667551;86;20163;-86
2021/06/20 04:19:49;;;;;;;;;;;;;;;17.53;71.43;97070.75;1667513;86;20166;-86
2021/06/20 04:22:16;;;;;;;;;;;;;;;17.63;71.37;97066.56;1667464;86;20145;-85
2021/06/20 04:24:42;;;;;;;;;;;;;;;17.79;71.22;97066.53;1667315;86;20149;-85
2021/06/20 04:27:10;;;;;;;;;;;;;;;17.96;70.85;97065.19;1667303;86;20141;-85
2021/06/20 04:29:39;;;;;;;;;;;;;;;18.12;70.60;97054.16;1667496;86;20181;-85
2021/06/20 04:32:06;;;;;;;;;;;;;;;18.28;70.23;97050.09;1667687;85;20193;-82
2021/06/20 04:34:33;;;;;;;;;;;;;;;18.47;69.73;97046.67;1667060;85;20509;-81
2021/06/20 04:36:59;;;;;;;;;;;;;;;18.64;68.76;97042.91;1641071;86;20185;-85
2021/06/20 04:39:27;;;;;;;;;;;;;;;18.80;69.59;97034.45;1640421;88;20237;-85
2021/06/20 04:41:53;;;;;;;;;;;;;;;18.87;68.51;97030.09;1660336;86;20203;-86
2021/06/20 04:47:03;;;;;;;;;;;;;;;19.27;68.62;97021.97;1656806;87;20134;-85
2021/06/20 04:49:30;;;;;;;;;;;;;;;19.72;68.82;97022.05;1656883;86;20149;-85
2021/06/20 04:51:56;;;;;;;;;;;;;;;20.41;66.91;97017.75;1656841;86;20162;-82
2021/06/20 04:54:22;;;;;;;;;;;;;;;20.95;65.37;97017.02;1656323;86;20122;-83
2021/06/20 04:56:48;;;;;;;;;;;;;;;21.51;65.61;97008.20;1630945;87;20160;-85
2021/06/20 04:59:14;;;;;;;;;;;;;;;22.24;60.06;97012.38;1630455;88;20149;-84
2021/06/20 05:01:41;;;;;;;;;;;;;;;23.00;59.78;97001.14;1641455;87;20451;-85
2021/06/20 05:04:08;;;;;;;;;;;;;;;23.77;55.72;97001.26;1630331;88;20136;-84
2021/06/20 05:06:35;;;;;;;;;;;;;;;24.44;53.91;96994.34;1652448;87;20141;-85
2021/06/20 05:09:05;;;;;;;;;;;;;;;25.13;54.46;96984.31;1656915;86;20204;-84
2021/06/20 05:11:31;;;;;;;;;;;;;;;25.76;53.01;96972.55;1637903;87;20134;-82
2021/06/20 05:13:57;;;;;;;;;;;;;;;26.33;54.38;96969.66;1656792;87;20486;-85
2021/06/20 05:16:24;;;;;;;;;;;;;;;26.84;49.23;96966.70;1656842;87;20134;-85
2021/06/20 05:18:50;;;;;;;;;;;;;;;27.42;47.27;96962.43;1657106;86;20137;-85
2021/06/20 05:21:16;;;;;;;;;;;;;;;27.95;47.42;96964.43;1656887;86;20118;-84
2021/06/20 05:23:45;;;;;;;;;;;;;;;28.33;44.54;96959.01;1657128;86;20141;-84
2021/06/20 05:26:11;;;;;;;;;;;;;;;28.71;44.03;96959.48;1644794;86;20137;-85
2021/06/20 05:28:38;;;;;;;;;;;;;;;28.93;42.14;96956.89;1630481;88;20183;-82
2021/06/20 05:31:04;;;;;;;;;;;;;;;29.17;40.32;96955.38;1630507;88;20141;-84
2021/06/20 05:33:31;;;;;;;;;;;;;;;29.44;40.84;96964.52;1630322;88;20128;-86
2021/06/20 05:35:57;;;;;;;;;;;;;;;29.69;40.09;96961.08;1648515;87;20126;-89
2021/06/20 05:38:23;;;;;;;;;;;;;;;29.91;39.96;96961.95;1657114;86;20173;-86
2021/06/20 05:40:50;;;;;;;;;;;;;;;30.14;40.00;96959.27;1657121;87;20208;-84
2021/06/20 05:43:17;;;;;;;;;;;;;;;30.29;39.04;96958.63;1652671;86;20127;-84
2021/06/20 05:45:43;;;;;;;;;;;;;;;30.66;40.55;96954.70;1637209;88;20421;-86
2021/06/20 05:48:09;;;;;;;;;;;;;;;31.03;35.75;96955.05;1640667;86;20460;-88
2021/06/20 05:50:53;;;;;;;;;;;;;;;31.39;37.83;96960.28;1640397;88;20457;-85
2021/06/20 05:53:19;;;;;;;;;;;;;;;31.77;34.60;96956.17;1640478;86;20164;-84
2021/06/20 05:55:46;;;;;;;;;;;;;;;32.18;34.91;96962.36;1614204;88;20163;-86
2021/06/20 05:58:13;;;;;;;;;;;;;;;32.49;32.33;96970.70;1613306;88;20160;-85
2021/06/20 06:00:39;;;;;;;;;;;;;;;32.52;38.77;96969.61;1640505;87;20143;-85
2021/06/20 06:03:05;;;;;;;;;;;;;;;32.38;35.11;96969.85;1640450;88;20516;-84
2021/06/20 06:05:32;;;;;;;;;;;;;;;31.91;34.15;96968.26;1654266;86;20442;-83
2021/06/20 06:07:58;;;;;;;;;;;;;;;31.52;37.38;96962.25;1659604;86;20433;-83
2021/06/20 06:10:25;;;;;;;;;;;;;;;31.43;34.58;96957.30;1640517;88;20449;-84
2021/06/20 06:12:52;;;;;;;;;;;;;;;31.64;36.12;96951.18;1640525;88;20456;-83
2021/06/20 06:15:18;;;;;;;;;;;;;;;31.66;33.76;96954.44;1656246;86;20698;-84
2021/06/20 06:17:44;;;;;;;;;;;;;;;31.65;33.97;96948.73;1667457;86;20146;-85
2021/06/20 06:20:14;;;;;;;;;;;;;;;31.71;33.80;96939.53;1667561;86;20145;-86
2021/06/20 06:22:40;;;;;;;;;;;;;;;31.81;32.31;96938.75;1667405;86;20426;-84
2021/06/20 06:25:06;;;;;;;;;;;;;;;31.95;33.57;96938.58;1667493;86;20145;-84
2021/06/20 06:27:32;;;;;;;;;;;;;;;32.28;33.17;96939.27;1667514;86;20178;-83
2021/06/20 06:29:59;;;;;;;;;;;;;;;32.26;33.57;96935.17;1667588;86;20177;-84
2021/06/20 06:32:25;;;;;;;;;;;;;;;32.56;32.44;96930.34;1667685;86;20161;-83
2021/06/20 06:34:51;;;;;;;;;;;;;;;32.95;35.43;96935.34;1645887;86;20421;-85
2021/06/20 06:37:18;;;;;;;;;;;;;;;33.20;30.33;96936.42;1640414;88;20578;-80
2021/06/20 06:39:44;;;;;;;;;;;;;;;33.07;35.80;96941.08;1640433;88;20156;-84
2021/06/20 06:42:10;;;;;;;;;;;;;;;33.19;34.45;96943.53;1640605;86;20452;-83
2021/06/20 06:44:36;;;;;;;;;;;;;;;33.23;29.83;96939.98;1642115;86;20143;-83
2021/06/20 06:47:05;;;;;;;;;;;;;;;33.23;35.71;96945.44;1648125;87;20196;-84
2021/06/20 06:49:33;;;;;;;;;;;;;;;33.25;36.11;96958.81;1656927;86;20158;-84
2021/06/20 06:51:59;;;;;;;;;;;;;;;32.85;34.48;96957.16;1657023;87;20142;-83
2021/06/20 06:54:30;;;;;;;;;;;;;;;32.53;30.14;96954.89;1657248;87;20138;-84
2021/06/20 06:56:54;;;;;;;;;;;;;;;32.61;31.87;96963.10;1657338;87;20185;-84
2021/06/20 06:59:20;;;;;;;;;;;;;;;32.56;33.57;96967.16;1657087;87;20125;-84
2021/06/20 07:01:46;;;;;;;;;;;;;;;31.88;33.68;96959.24;1657185;87;20207;-84
2021/06/20 07:04:13;;;;;;;;;;;;;;;31.71;32.65;96953.96;1657144;87;20141;-84
2021/06/20 07:06:40;;;;;;;;;;;;;;;31.73;32.88;96946.35;1657091;87;20130;-84
2021/06/20 07:09:06;;;;;;;;;;;;;;;31.69;32.57;96937.61;1657042;87;20481;-84
2021/06/20 07:11:32;;;;;;;;;;;;;;;30.91;32.95;96931.54;1657284;87;20134;-85
2021/06/20 07:13:58;;;;;;;;;;;;;;;30.35;33.27;96926.34;1654302;87;20166;-83
2021/06/20 07:16:24;;;;;;;;;;;;;;;30.59;32.05;96927.42;1652624;87;20138;-83
2021/06/20 07:18:50;;;;;;;;;;;;;;;30.81;33.10;96920.04;1657341;87;20145;-84
2021/06/20 07:21:16;;;;;;;;;;;;;;;30.92;32.89;96916.05;1657005;86;20423;-84
2021/06/20 07:23:43;;;;;;;;;;;;;;;30.93;30.78;96919.86;1656695;87;20146;-84
2021/06/20 07:26:09;;;;;;;;;;;;;;;31.03;30.44;96923.75;1657231;86;20138;-84
2021/06/20 07:28:36;;;;;;;;;;;;;;;31.25;31.88;96919.59;1657092;87;20130;-84
2021/06/20 07:31:02;;;;;;;;;;;;;;;31.62;30.87;96913.30;1657135;87;20133;-84
2021/06/20 07:33:28;;;;;;;;;;;;;;;32.11;30.70;96915.46;1637135;87;20156;-84
2021/06/20 07:35:57;;;;;;;;;;;;;;;32.14;30.35;96909.48;1630321;87;20165;-83
2021/06/20 07:38:24;;;;;;;;;;;;;;;32.40;31.81;96911.75;1630707;88;20177;-85
2021/06/20 07:40:52;;;;;;;;;;;;;;;32.24;28.73;96908.19;1630608;88;20181;-84
2021/06/20 07:43:21;;;;;;;;;;;;;;;32.24;28.47;96906.27;1630472;88;20153;-84
2021/06/20 07:45:46;;;;;;;;;;;;;;;32.22;30.88;96896.70;1632051;87;20140;-85
2021/06/20 07:48:12;;;;;;;;;;;;;;;32.44;31.45;96895.14;1635752;88;20139;-84
2021/06/20 07:50:38;;;;;;;;;;;;;;;32.78;30.53;96894.66;1613913;88;20136;-83
2021/06/20 07:53:07;;;;;;;;;;;;;;;32.88;29.51;96881.58;1660973;86;20145;-83
2021/06/20 07:55:33;;;;;;;;;;;;;;;33.15;30.04;96886.73;1667795;86;20121;-85
2021/06/20 07:57:59;;;;;;;;;;;;;;;33.15;29.10;96889.47;1667468;86;20181;-86
2021/06/20 08:00:25;;;;;;;;;;;;;;;33.41;29.67;96896.28;1639675;86;20137;-84
2021/06/20 08:02:51;;;;;;;;;;;;;;;33.53;28.53;96890.54;1667789;86;20157;-83
2021/06/20 08:05:17;;;;;;;;;;;;;;;33.72;28.74;96886.64;1667603;86;20138;-84
2021/06/20 08:07:43;;;;;;;;;;;;;;;33.57;28.23;96883.41;1667626;86;20129;-84
2021/06/20 08:10:10;;;;;;;;;;;;;;;33.33;28.31;96894.11;1667729;86;20149;-84
2021/06/20 08:12:36;;;;;;;;;;;;;;;33.03;29.01;96887.59;1665818;85;20451;-84
2021/06/20 08:15:03;;;;;;;;;;;;;;;33.11;30.37;96886.20;1667709;86;20140;-84
2021/06/20 08:17:29;;;;;;;;;;;;;;;33.04;27.82;96888.39;1667150;86;20399;-84
2021/06/20 08:19:57;;;;;;;;;;;;;;;33.11;29.27;96893.02;1650560;86;20445;-83
2021/06/20 08:22:23;;;;;;;;;;;;;;;33.24;33.12;96891.64;1642453;86;20180;-83
2021/06/20 08:24:50;;;;;;;;;;;;;;;33.21;29.68;96889.48;1640551;88;20428;-83
2021/06/20 08:27:16;;;;;;;;;;;;;;;33.06;29.19;96894.41;1640791;86;20464;-84
2021/06/20 08:29:42;;;;;;;;;;;;;;;33.04;30.15;96888.39;1640407;88;20132;-84
2021/06/20 08:32:08;;;;;;;;;;;;;;;33.15;28.57;96891.39;1654040;86;20175;-85
2021/06/20 08:34:35;;;;;;;;;;;;;;;32.57;28.06;96899.81;1667128;85;20157;-86
2021/06/20 08:37:02;;;;;;;;;;;;;;;31.33;28.77;96895.96;1667361;85;20138;-86
2021/06/20 08:39:30;;;;;;;;;;;;;;;30.63;30.15;96895.94;1667547;86;20129;-85
2021/06/20 08:41:57;;;;;;;;;;;;;;;30.55;31.08;96889.61;1667387;86;20146;-85
2021/06/20 08:44:33;;;;;;;;;;;;;;;30.49;30.96;96888.70;1667410;86;20453;-84
2021/06/20 08:47:01;;;;;;;;;;;;;;;30.32;32.66;96879.28;1667641;85;20177;-83
2021/06/20 08:49:28;;;;;;;;;;;;;;;30.36;31.93;96894.02;1666088;86;20141;-82
2021/06/20 08:51:57;;;;;;;;;;;;;;;30.05;30.87;96884.99;1631455;88;20422;-82
2021/06/20 08:54:23;;;;;;;;;;;;;;;30.13;30.90;96883.70;1640373;88;20409;-83
2021/06/20 08:56:51;;;;;;;;;;;;;;;30.03;31.57;96880.86;1648596;86;20390;-82
2021/06/20 08:59:18;;;;;;;;;;;;;;;29.89;30.30;96883.95;1645410;86;20127;-80
2021/06/20 09:01:45;;;;;;;;;;;;;;;29.68;29.99;96880.69;1662194;85;20246;-81
2021/06/20 09:04:13;;;;;;;;;;;;;;;29.37;30.77;96880.28;1667057;85;20161;-82
2021/06/20 09:06:40;;;;;;;;;;;;;;;29.30;30.71;96885.30;1663421;86;20414;-81
2021/06/20 09:09:09;;;;;;;;;;;;;;;29.32;30.19;96882.39;1667237;86;20430;-80
2021/06/20 09:11:41;;;;;;;;;;;;;;;29.32;30.99;96887.82;1667397;86;20136;-81
2021/06/20 09:14:12;;;;;;;;;;;;;;;29.14;31.04;96891.58;1667376;86;20173;-82
2021/06/20 09:16:47;;;;;;;;;;;;;;;29.10;31.63;96884.98;1663834;86;20186;-82
2021/06/20 09:19:14;;;;;;;;;;;;;;;29.32;31.43;96880.16;1640248;88;20166;-79
2021/06/20 09:21:52;;;;;;;;;;;;;;;29.58;31.17;96878.13;1640382;88;20423;-83
2021/06/20 09:24:20;;;;;;;;;;;;;;;29.71;30.27;96870.69;1640363;87;20160;-81
2021/06/20 09:26:51;;;;;;;;;;;;;;;29.72;30.47;96869.06;1641131;86;20125;-84
2021/06/20 09:29:29;;;;;;;;;;;;;;;29.12;30.57;96866.58;1657627;86;20192;-80
2021/06/20 09:31:56;;;;;;;;;;;;;;;28.66;31.31;96863.39;1640321;86;20122;-83
2021/06/20 09:34:22;;;;;;;;;;;;;;;28.33;31.84;96861.45;1667296;86;20146;-80
2021/06/20 09:37:00;;;;;;;;;;;;;;;28.00;32.79;96851.61;1663635;86;20108;-81
2021/06/20 09:39:27;;;;;;;;;;;;;;;28.14;33.00;96851.37;1647712;86;20387;-80
2021/06/20 09:42:09;;;;;;;;;;;;;;;28.27;33.09;96847.53;1640206;88;20090;-81
2021/06/20 09:44:37;;;;;;;;;;;;;;;28.46;33.08;96848.13;1639911;87;20147;-85
2021/06/20 09:47:05;;;;;;;;;;;;;;;28.14;32.21;96850.82;1640123;88;20158;-82
2021/06/20 09:49:32;;;;;;;;;;;;;;;28.13;33.10;96851.07;1642037;86;20110;-82
2021/06/20 09:52:00;;;;;;;;;;;;;;;27.97;33.06;96848.05;1640740;86;20635;-83
2021/06/20 09:54:31;;;;;;;;;;;;;;;27.97;33.68;96852.11;1640292;87;20109;-82
2021/06/20 09:56:58;;;;;;;;;;;;;;;28.01;32.98;96841.62;1640418;88;20416;-82
2021/06/20 09:59:33;;;;;;;;;;;;;;;28.00;33.82;96831.30;1640623;88;20202;-84
2021/06/20 10:02:12;;;;;;;;;;;;;;;27.74;33.06;96832.70;1640248;88;20158;-81
2021/06/20 10:04:41;;;;;;;;;;;;;;;27.57;33.78;96820.44;1649076;86;20145;-81
2021/06/20 10:07:09;;;;;;;;;;;;;;;27.68;33.87;96818.23;1661737;86;20137;-80
2021/06/20 10:09:37;;;;;;;;;;;;;;;27.64;33.72;96821.13;1649005;86;20148;-81
2021/06/20 10:12:05;;;;;;;;;;;;;;;27.43;33.89;96813.92;1614717;86;20104;-82
2021/06/20 10:14:32;;;;;;;;;;;;;;;27.46;33.76;96806.40;1666804;86;20149;-81
2021/06/20 10:17:10;;;;;;;;;;;;;;;27.41;34.34;96798.45;1666890;86;20177;-81
2021/06/20 10:19:41;;;;;;;;;;;;;;;27.53;34.08;96801.16;1666971;86;20137;-83
2021/06/20 10:22:07;;;;;;;;;;;;;;;27.72;34.33;96799.63;1666826;85;20185;-84
2021/06/20 10:24:48;;;;;;;;;;;;;;;27.98;34.16;96791.44;1671215;85;20131;-83
2021/06/20 10:27:31;;;;;;;;;;;;;;;28.13;34.35;96795.00;1695132;85;20180;-82
2021/06/20 10:30:00;;;;;;;;;;;;;;;28.40;33.72;96789.50;1695219;85;20130;-82
2021/06/20 10:32:30;;;;;;;;;;;;;;;28.63;33.86;96782.55;1695066;85;20159;-82
2021/06/20 10:34:59;;;;;;;;;;;;;;;28.59;32.98;96781.93;1693409;83;20155;-84
2021/06/20 10:37:28;;;;;;;;;;;;;;;28.58;34.35;96777.60;1695109;85;20150;-82
2021/06/20 10:39:55;;;;;;;;;;;;;;;28.43;33.51;96772.20;1667545;85;20209;-84
2021/06/20 10:42:25;;;;;;;;;;;;;;;28.21;33.30;96782.95;1695120;85;20143;-83
2021/06/20 10:44:55;;;;;;;;;;;;;;;28.08;34.24;96774.59;1687234;85;20155;-83
2021/06/20 10:47:33;;;;;;;;;;;;;;;28.07;34.44;96772.95;1695262;85;20201;-84
2021/06/20 10:50:06;;;;;;;;;;;;;;;27.95;34.50;96772.98;1688441;85;20179;-84
2021/06/20 10:52:33;;;;;;;;;;;;;;;27.92;34.75;96768.05;1688276;85;20142;-83
2021/06/20 10:55:06;;;;;;;;;;;;;;;27.88;34.98;96769.61;1688132;85;20123;-83
2021/06/20 10:57:32;;;;;;;;;;;;;;;27.94;35.03;96766.44;1687302;85;20176;-81
2021/06/20 10:59:59;;;;;;;;;;;;;;;28.00;35.20;96773.06;1687943;84;20150;-80
2021/06/20 11:02:33;;;;;;;;;;;;;;;28.04;34.66;96764.76;1668483;85;20427;-83
2021/06/20 11:05:01;;;;;;;;;;;;;;;28.08;35.22;96761.58;1660334;86;20166;-79
2021/06/20 11:07:28;;;;;;;;;;;;;;;28.27;35.30;96755.41;1645110;85;20428;-83
2021/06/20 11:09:56;;;;;;;;;;;;;;;28.54;35.43;96747.98;1633755;87;20502;-82
2021/06/20 11:12:23;;;;;;;;;;;;;;;28.72;34.75;96745.58;1635565;87;20110;-83
2021/06/20 11:14:49;;;;;;;;;;;;;;;28.98;35.17;96748.94;1635643;87;20192;-81
2021/06/20 11:17:16;;;;;;;;;;;;;;;28.98;34.46;96750.81;1633905;87;20122;-82
2021/06/20 11:19:44;;;;;;;;;;;;;;;28.81;34.59;96753.58;1633796;88;20114;-85
2021/06/20 11:22:13;;;;;;;;;;;;;;;28.63;34.18;96750.02;1655640;85;20112;-82
2021/06/20 11:24:46;;;;;;;;;;;;;;;28.50;34.62;96746.30;1667240;86;20116;-83
2021/06/20 11:27:14;;;;;;;;;;;;;;;28.50;33.93;96751.72;1667382;86;20128;-81
2021/06/20 11:29:45;;;;;;;;;;;;;;;28.50;34.57;96749.01;1667046;86;20096;-85
2021/06/20 11:32:20;;;;;;;;;;;;;;;28.52;34.62;96746.88;1651640;86;20099;-83
2021/06/20 11:34:54;;;;;;;;;;;;;;;28.61;34.71;96745.91;1654204;87;20118;-83
2021/06/20 11:37:29;;;;;;;;;;;;;;;28.80;34.35;96742.45;1656956;87;20141;-80
2021/06/20 11:40:00;;;;;;;;;;;;;;;29.11;33.85;96736.91;1654725;85;20150;-80
2021/06/20 11:42:29;;;;;;;;;;;;;;;29.46;33.93;96738.99;1633036;88;20126;-81
2021/06/20 11:44:59;;;;;;;;;;;;;;;29.80;34.28;96740.69;1632836;88;20415;-81
2021/06/20 11:47:37;;;;;;;;;;;;;;;29.89;32.94;96731.84;1640191;87;20431;-78
2021/06/20 11:50:15;;;;;;;;;;;;;;;30.03;32.94;96736.88;1679104;85;20135;-81
2021/06/20 11:52:50;;;;;;;;;;;;;;;29.98;32.76;96733.57;1679944;85;20130;-81
2021/06/20 11:55:20;;;;;;;;;;;;;;;30.09;33.17;96737.74;1674354;85;20448;-81
2021/06/20 11:57:47;;;;;;;;;;;;;;;29.75;32.89;96730.59;1687919;84;20127;-82
2021/06/20 12:00:17;;;;;;;;;;;;;;;29.29;33.59;96737.11;1663243;84;20252;-81
2021/06/20 12:02:45;;;;;;;;;;;;;;;28.96;34.42;96732.09;1660241;85;20427;-82
2021/06/20 12:05:13;;;;;;;;;;;;;;;28.86;34.95;96725.17;1660176;85;20183;-83
2021/06/20 12:07:41;;;;;;;;;;;;;;;28.83;34.87;96733.80;1660125;85;20138;-81
2021/06/20 12:10:10;;;;;;;;;;;;;;;28.78;35.57;96726.41;1660177;86;20418;-80
2021/06/20 12:12:38;;;;;;;;;;;;;;;28.83;35.27;96731.92;1686979;85;20144;-80
2021/06/20 12:15:08;;;;;;;;;;;;;;;28.79;35.69;96723.98;1687699;85;20175;-80
2021/06/20 12:17:39;;;;;;;;;;;;;;;28.94;35.66;96722.02;1687965;85;20155;-81
2021/06/20 12:20:08;;;;;;;;;;;;;;;29.08;35.06;96721.67;1687928;85;20139;-82
2021/06/20 12:22:43;;;;;;;;;;;;;;;28.97;35.12;96724.77;1660055;85;20137;-79
2021/06/20 12:25:10;;;;;;;;;;;;;;;28.71;35.63;96718.19;1660024;85;20141;-83
2021/06/20 12:27:38;;;;;;;;;;;;;;;28.44;36.02;96719.65;1644586;85;20138;-81
2021/06/20 12:30:17;;;;;;;;;;;;;;;28.44;35.78;96714.78;1633711;88;20140;-80
2021/06/20 12:32:49;;;;;;;;;;;;;;;28.43;35.89;96721.27;1625687;87;20186;-82
2021/06/20 12:35:31;;;;;;;;;;;;;;;28.42;35.31;96716.36;1653880;85;20122;-82
2021/06/20 12:37:57;;;;;;;;;;;;;;;28.57;35.38;96714.42;1654135;87;20117;-83
2021/06/20 12:40:28;;;;;;;;;;;;;;;28.80;35.25;96716.69;1625068;87;20374;-80
2021/06/20 12:42:57;;;;;;;;;;;;;;;28.84;33.20;96715.09;1624743;87;20235;-79
2021/06/20 12:45:27;;;;;;;;;;;;;;;28.99;33.10;96714.48;1625102;88;20138;-83
2021/06/20 12:47:56;;;;;;;;;;;;;;;29.10;33.09;96708.13;1624689;87;20133;-81
2021/06/20 12:50:28;;;;;;;;;;;;;;;29.24;32.92;96707.73;1594008;89;20124;-82
2021/06/20 12:52:55;;;;;;;;;;;;;;;29.47;33.26;96702.61;1613383;89;20112;-82
2021/06/20 12:55:23;;;;;;;;;;;;;;;29.83;33.14;96703.00;1613594;88;20223;-80